Time;durP1;ratioP1;P1;durP2;ratioP2;P2;SDS_P1;SDS_P2;PMS_P1;PMS_P2;Temp;Humidity;BMP_temperature;BMP_pressure;BME280_temperature;BME280_humidity;BME280_pressure;Samples;Min_cycle;Max_cycle;Signal;HPM_P1;HPM_P2
2022/12/30 00:01:23;;;;;;;4.22;2.67;;;20.90;71.50;;;;;;5046813;28;20713;-41
2022/12/30 00:03:50;;;;;;;3.35;3.05;;;21.00;71.30;;;;;;5049626;28;20199;-41
2022/12/30 00:06:19;;;;;;;3.08;2.78;;;21.00;71.00;;;;;;5042860;28;20191;-43
2022/12/30 00:08:47;;;;;;;3.13;2.83;;;21.00;71.00;;;;;;5047399;28;20195;-41
2022/12/30 00:11:15;;;;;;;4.25;3.72;;;21.00;71.10;;;;;;5049574;28;20225;-41
2022/12/30 00:33:26;;;;;;;3.20;2.60;;;20.80;71.50;;;;;;5039774;28;20265;-41
2022/12/30 00:35:52;;;;;;;3.10;2.90;;;20.70;71.60;;;;;;5035412;28;20198;-43
2022/12/30 00:38:19;;;;;;;4.20;3.05;;;20.70;71.60;;;;;;5040996;28;20199;-43
2022/12/30 00:43:26;;;;;;;4.10;3.50;;;20.80;71.50;;;;;;5041974;28;20566;-41
2022/12/30 00:45:53;;;;;;;2.80;2.60;;;20.90;71.30;;;;;;5043622;28;20191;-41
2022/12/30 00:56:35;;;;;;;32.40;31.02;;;20.80;71.20;;;;;;5043235;28;20201;-41
2022/12/30 00:59:01;;;;;;;16.02;15.05;;;20.80;71.40;;;;;;5041203;28;22408;-43
2022/12/30 01:01:28;;;;;;;22.98;22.02;;;20.70;71.20;;;;;;5039639;28;20735;-43
2022/12/30 01:03:56;;;;;;;4.88;4.45;;;20.70;71.40;;;;;;5042388;28;20237;-41
2022/12/30 01:06:23;;;;;;;7.00;4.50;;;20.70;71.40;;;;;;5037576;28;20206;-42
2022/12/30 01:08:50;;;;;;;5.47;3.75;;;20.70;71.50;;;;;;5041249;28;20199;-41
2022/12/30 01:11:16;;;;;;;17.67;16.63;;;20.70;71.50;;;;;;5040363;28;20594;-41
2022/12/30 01:13:43;;;;;;;11.52;10.63;;;20.70;71.60;;;;;;5038674;28;20196;-42
2022/12/30 01:16:11;;;;;;;10.07;9.48;;;20.60;71.50;;;;;;5042358;28;20196;-42
2022/12/30 01:18:38;;;;;;;7.80;7.30;;;20.70;72.00;;;;;;5044350;28;20681;-42
2022/12/30 01:21:07;;;;;;;3.50;3.20;;;20.70;71.40;;;;;;5043368;28;20584;-41
2022/12/30 01:23:34;;;;;;;8.63;7.82;;;20.80;71.20;;;;;;5044237;28;20200;-41
2022/12/30 01:26:02;;;;;;;3.35;2.63;;;20.80;71.10;;;;;;5045837;28;20684;-41
2022/12/30 01:28:30;;;;;;;6.32;5.82;;;20.70;71.00;;;;;;5044949;28;20198;-40
2022/12/30 01:30:57;;;;;;;3.60;3.30;;;20.80;71.20;;;;;;5041016;28;20728;-43
2022/12/30 01:33:24;;;;;;;3.20;3.00;;;20.70;71.10;;;;;;5045887;28;20199;-41
2022/12/30 01:39:14;;;;;;;5.90;5.40;;;20.70;71.30;;;;;;5033772;28;20195;-40
2022/12/30 01:41:40;;;;;;;4.50;4.10;;;20.70;71.40;;;;;;5042619;28;20264;-41
2022/12/30 01:44:40;;;;;;;4.10;3.80;;;20.60;71.30;;;;;;5042918;28;20396;-41
2022/12/30 01:47:09;;;;;;;6.03;3.25;;;20.60;71.30;;;;;;5035550;28;20720;-45
2022/12/30 01:49:41;;;;;;;4.30;4.00;;;20.60;71.40;;;;;;5044049;28;20249;-42
2022/12/30 01:52:08;;;;;;;5.22;4.82;;;20.60;71.50;;;;;;5037024;28;20263;-41
2022/12/30 01:54:37;;;;;;;9.75;8.98;;;20.60;71.50;;;;;;5041502;28;20279;-41
2022/12/30 01:57:05;;;;;;;3.80;3.50;;;20.60;71.50;;;;;;5044084;28;20656;-41
2022/12/30 01:59:32;;;;;;;28.75;27.50;;;20.60;71.40;;;;;;5037977;28;20191;-44
2022/12/30 02:01:59;;;;;;;21.38;19.92;;;20.70;71.40;;;;;;5032005;28;20220;-43
2022/12/30 02:04:28;;;;;;;89.15;86.05;;;20.70;71.20;;;;;;5039467;28;20427;-47
2022/12/30 02:07:04;;;;;;;188.27;181.40;;;20.70;71.10;;;;;;5044672;28;20192;-41
2022/12/30 02:09:32;;;;;;;6.05;5.50;;;20.70;71.20;;;;;;5039443;28;20204;-41
2022/12/30 02:12:02;;;;;;;3.40;3.10;;;20.70;71.20;;;;;;5046900;28;20741;-43
2022/12/30 02:14:33;;;;;;;3.95;3.55;;;20.60;71.10;;;;;;5045052;28;20206;-41
2022/12/30 02:17:06;;;;;;;6.32;5.72;;;20.60;71.20;;;;;;5038758;28;20212;-45
2022/12/30 02:20:00;;;;;;;2.38;1.98;;;20.60;71.30;;;;;;5043175;28;20212;-44
2022/12/30 02:22:37;;;;;;;2.35;1.92;;;20.60;71.40;;;;;;5045799;28;20219;-41
2022/12/30 02:25:53;;;;;;;2.35;1.95;;;20.60;71.40;;;;;;5044664;28;20610;-41
2022/12/30 02:28:45;;;;;;;4.07;2.80;;;20.60;71.30;;;;;;5038490;28;20199;-44
2022/12/30 02:31:26;;;;;;;2.83;2.60;;;20.60;71.40;;;;;;5044666;28;20203;-41
2022/12/30 02:34:00;;;;;;;3.47;2.28;;;20.50;71.40;;;;;;5049298;28;20197;-42
2022/12/30 02:36:30;;;;;;;2.72;2.47;;;20.60;71.50;;;;;;5043901;28;20555;-41
2022/12/30 02:39:05;;;;;;;2.13;1.80;;;20.60;71.20;;;;;;5038076;28;20729;-42
2022/12/30 02:44:39;;;;;;;4.50;2.40;;;20.60;71.00;;;;;;5050188;28;20252;-41
2022/12/30 02:47:13;;;;;;;5.25;4.75;;;20.60;71.00;;;;;;5048632;28;20565;-42
2022/12/30 02:49:43;;;;;;;3.85;3.55;;;20.60;71.10;;;;;;5048559;28;20253;-42
2022/12/30 02:52:16;;;;;;;5.15;4.75;;;20.60;71.20;;;;;;5057940;28;20246;-44
2022/12/30 02:54:43;;;;;;;3.70;2.65;;;20.60;71.20;;;;;;5045739;28;20192;-43
2022/12/30 02:57:25;;;;;;;3.15;2.92;;;20.50;71.20;;;;;;5049262;28;20192;-41
2022/12/30 03:05:49;;;;;;;6.20;5.70;;;20.50;71.20;;;;;;5043486;28;20218;-43
2022/12/30 03:08:23;;;;;;;3.42;3.13;;;20.50;71.30;;;;;;5049656;28;20199;-41
2022/12/30 03:13:47;;;;;;;3.25;2.95;;;20.50;71.30;;;;;;5047764;28;20213;-44
2022/12/30 03:16:19;;;;;;;2.35;1.85;;;20.60;71.20;;;;;;5045271;28;20199;-41
2022/12/30 03:18:49;;;;;;;3.70;3.38;;;20.60;71.00;;;;;;5046479;28;20211;-41
2022/12/30 03:21:19;;;;;;;5.72;5.22;;;20.70;71.10;;;;;;5047400;28;20231;-40
2022/12/30 03:29:24;;;;;;;3.53;2.53;;;20.50;70.90;;;;;;5045764;28;20564;-41
2022/12/30 03:31:51;;;;;;;3.85;3.55;;;20.50;71.00;;;;;;5042885;28;20200;-46
2022/12/30 03:34:19;;;;;;;3.03;2.80;;;20.50;71.00;;;;;;5044074;28;20203;-42
2022/12/30 03:36:49;;;;;;;3.65;3.35;;;20.50;71.20;;;;;;5048528;28;20579;-43
2022/12/30 03:39:19;;;;;;;2.85;2.47;;;20.50;71.20;;;;;;5040915;28;20202;-45
2022/12/30 03:41:48;;;;;;;2.60;2.33;;;20.50;71.20;;;;;;5050045;28;20220;-46
2022/12/30 03:44:16;;;;;;;3.53;2.90;;;20.50;71.20;;;;;;5049976;28;20208;-41
2022/12/30 03:46:44;;;;;;;3.60;3.22;;;20.40;71.00;;;;;;5041240;28;20595;-41
2022/12/30 03:49:11;;;;;;;3.35;2.95;;;20.40;71.00;;;;;;5050764;28;20191;-41
2022/12/30 03:51:39;;;;;;;3.55;3.13;;;20.50;71.00;;;;;;5045067;28;20207;-42
2022/12/30 03:54:06;;;;;;;7.10;6.50;;;20.50;70.90;;;;;;5044855;28;20265;-43
2022/12/30 03:56:32;;;;;;;3.40;3.05;;;20.50;70.80;;;;;;5047925;28;20245;-41
2022/12/30 03:58:59;;;;;;;3.08;2.70;;;20.60;70.90;;;;;;5051491;28;20196;-42
2022/12/30 04:01:26;;;;;;;3.47;3.17;;;20.70;71.00;;;;;;5045862;28;20683;-42
2022/12/30 04:03:53;;;;;;;2.67;2.47;;;20.60;70.90;;;;;;5044093;28;20725;-42
2022/12/30 04:06:19;;;;;;;2.65;2.45;;;20.50;70.90;;;;;;5047631;28;20187;-41
2022/12/30 04:08:47;;;;;;;4.65;4.20;;;20.50;70.90;;;;;;5047296;28;20207;-42
2022/12/30 04:11:14;;;;;;;7.70;7.07;;;20.40;70.90;;;;;;5044986;28;20192;-44
2022/12/30 04:13:41;;;;;;;4.03;3.72;;;20.40;71.00;;;;;;5050160;28;20205;-42
2022/12/30 04:16:08;;;;;;;2.40;2.20;;;20.40;71.00;;;;;;5039545;28;20196;-43
2022/12/30 04:18:35;;;;;;;3.45;2.63;;;20.40;70.90;;;;;;5045004;28;20235;-42
2022/12/30 04:21:01;;;;;;;2.63;2.42;;;20.40;71.00;;;;;;5044046;28;20212;-41
2022/12/30 04:23:28;;;;;;;2.53;2.20;;;20.40;71.00;;;;;;5049173;28;20678;-43
2022/12/30 04:25:56;;;;;;;3.85;2.55;;;20.40;71.00;;;;;;5048146;28;20746;-41
2022/12/30 04:28:23;;;;;;;160.70;152.50;;;20.50;70.90;;;;;;5046738;28;20193;-42
2022/12/30 04:30:50;;;;;;;3.47;3.00;;;20.50;70.80;;;;;;5047467;28;20195;-41
2022/12/30 04:33:16;;;;;;;2.97;2.45;;;20.50;70.70;;;;;;5039255;28;20274;-44
2022/12/30 04:35:43;;;;;;;3.30;2.13;;;20.50;70.70;;;;;;5046010;28;20199;-42
2022/12/30 04:38:10;;;;;;;2.65;2.35;;;20.50;70.70;;;;;;5042946;28;20191;-43
2022/12/30 04:40:36;;;;;;;2.78;2.22;;;20.50;70.70;;;;;;5046067;28;20191;-46
2022/12/30 04:43:04;;;;;;;2.75;2.45;;;20.50;70.80;;;;;;5050223;28;20220;-41
2022/12/30 04:45:31;;;;;;;55.72;53.65;;;20.40;70.70;;;;;;5045365;28;20701;-43
2022/12/30 04:47:57;;;;;;;1.45;1.30;;;20.40;70.80;;;;;;5047597;28;20230;-41
2022/12/30 04:50:24;;;;;;;1.63;1.50;;;20.40;70.80;;;;;;5047791;28;20249;-41
2022/12/30 04:52:51;;;;;;;3.03;2.83;;;20.40;70.90;;;;;;5045056;28;20195;-44
2022/12/30 04:55:17;;;;;;;1.60;1.50;;;20.40;71.00;;;;;;5042228;28;20238;-41
2022/12/30 04:57:44;;;;;;;1.55;1.45;;;20.30;71.00;;;;;;5046762;28;20304;-42
2022/12/30 05:00:13;;;;;;;2.42;2.17;;;20.30;71.10;;;;;;5047035;28;20195;-47
2022/12/30 05:02:40;;;;;;;3.92;2.97;;;20.30;71.20;;;;;;5039673;28;20238;-41
2022/12/30 05:05:08;;;;;;;2.55;1.77;;;20.30;71.10;;;;;;5042574;28;20558;-44
2022/12/30 05:07:35;;;;;;;3.28;2.90;;;20.40;70.60;;;;;;5043996;28;20663;-46
2022/12/30 05:10:01;;;;;;;2.15;1.95;;;20.50;70.30;;;;;;5037643;28;20216;-43
2022/12/30 05:12:28;;;;;;;2.28;1.77;;;20.60;70.20;;;;;;5050502;28;20624;-41
2022/12/30 05:14:55;;;;;;;2.25;2.10;;;20.70;69.90;;;;;;5039887;28;20495;-41
2022/12/30 05:17:23;;;;;;;1.90;1.70;;;20.90;69.60;;;;;;5041764;28;20405;-42
2022/12/30 05:19:49;;;;;;;1.98;1.77;;;20.90;69.40;;;;;;5042299;28;20702;-43
2022/12/30 05:22:16;;;;;;;2.30;1.60;;;21.00;69.90;;;;;;5045075;28;20211;-46
2022/12/30 05:27:23;;;;;;;2.67;2.35;;;21.20;68.90;;;;;;5011232;28;20300;-44
2022/12/30 05:29:50;;;;;;;2.08;1.70;;;21.20;68.50;;;;;;5047773;28;20595;-41
2022/12/30 05:32:17;;;;;;;2.67;2.05;;;21.30;68.60;;;;;;5045412;28;20226;-41
2022/12/30 05:34:45;;;;;;;2.28;2.08;;;21.30;68.40;;;;;;5041044;28;20245;-42
2022/12/30 05:37:12;;;;;;;2.35;2.15;;;21.40;68.30;;;;;;5045529;28;20192;-41
2022/12/30 05:39:39;;;;;;;3.63;2.65;;;21.40;68.20;;;;;;5042192;28;20254;-42
2022/12/30 05:42:05;;;;;;;2.42;2.22;;;21.40;68.20;;;;;;5043621;28;20224;-44
2022/12/30 05:44:32;;;;;;;3.88;3.58;;;21.40;68.10;;;;;;5046965;28;20195;-42
2022/12/30 05:46:59;;;;;;;2.92;2.25;;;21.40;68.00;;;;;;5046533;28;20242;-42
2022/12/30 05:49:26;;;;;;;6.05;5.50;;;21.50;68.00;;;;;;5041787;28;20192;-44
2022/12/30 05:51:54;;;;;;;3.97;3.67;;;21.50;68.10;;;;;;5041856;28;20206;-45
2022/12/30 05:54:20;;;;;;;2.92;2.72;;;21.50;68.10;;;;;;5045345;28;20212;-42
2022/12/30 05:56:47;;;;;;;4.78;4.38;;;21.40;68.00;;;;;;5046371;28;20289;-42
2022/12/30 05:59:14;;;;;;;2.75;2.15;;;21.40;68.10;;;;;;5046138;28;20279;-49
2022/12/30 06:01:40;;;;;;;4.45;4.15;;;21.40;68.30;;;;;;5039538;28;20200;-42
2022/12/30 06:04:07;;;;;;;122.75;118.25;;;21.40;68.10;;;;;;5050202;28;20245;-45
2022/12/30 06:06:34;;;;;;;3.45;3.15;;;21.50;68.10;;;;;;5049848;28;20254;-41
2022/12/30 06:09:02;;;;;;;3.70;3.10;;;21.50;68.10;;;;;;5046606;28;20218;-44
2022/12/30 06:11:28;;;;;;;2.85;2.65;;;21.50;67.90;;;;;;5046020;28;20727;-41
2022/12/30 06:13:55;;;;;;;1.90;1.75;;;21.60;67.80;;;;;;5052146;28;20204;-41
2022/12/30 06:16:22;;;;;;;3.25;2.50;;;21.60;67.70;;;;;;5041625;28;20243;-40
2022/12/30 06:18:49;;;;;;;2.40;2.20;;;21.60;67.70;;;;;;5049326;28;20208;-45
2022/12/30 06:21:16;;;;;;;59.05;56.22;;;21.60;67.80;;;;;;5045291;28;20192;-51
2022/12/30 06:23:42;;;;;;;63.40;60.75;;;21.60;67.90;;;;;;5048891;28;20277;-43
2022/12/30 06:26:10;;;;;;;2.03;1.50;;;21.50;67.90;;;;;;5043489;28;20192;-41
2022/12/30 06:28:37;;;;;;;1.95;1.75;;;21.50;68.00;;;;;;5049439;28;20247;-43
2022/12/30 06:31:04;;;;;;;2.13;1.90;;;21.50;67.90;;;;;;5039523;28;20195;-41
2022/12/30 06:33:31;;;;;;;1.65;1.55;;;21.50;67.80;;;;;;5049015;28;20259;-42
2022/12/30 06:35:57;;;;;;;3.25;2.95;;;21.60;67.80;;;;;;5047773;28;20543;-42
2022/12/30 06:38:24;;;;;;;2.78;1.85;;;21.60;67.80;;;;;;5041620;28;20548;-41
2022/12/30 06:40:51;;;;;;;1.95;1.73;;;21.60;67.70;;;;;;5041992;28;20205;-41
2022/12/30 06:43:19;;;;;;;1.35;1.23;;;21.70;67.60;;;;;;5052148;28;20355;-42
2022/12/30 06:45:45;;;;;;;3.05;2.58;;;21.70;67.60;;;;;;5050347;28;20614;-42
2022/12/30 06:48:12;;;;;;;2.50;2.30;;;21.70;67.60;;;;;;5049264;28;20312;-41
2022/12/30 06:50:39;;;;;;;1.88;1.77;;;21.60;67.50;;;;;;5050704;28;20840;-41
2022/12/30 06:53:07;;;;;;;1.75;1.40;;;21.70;67.60;;;;;;5046349;28;20196;-41
2022/12/30 06:55:34;;;;;;;4.32;3.95;;;21.70;67.50;;;;;;5046913;28;20203;-45
2022/12/30 06:58:01;;;;;;;1.90;1.75;;;21.70;67.40;;;;;;5046751;28;20653;-42
2022/12/30 07:00:29;;;;;;;140.02;134.60;;;21.70;67.40;;;;;;5048704;28;20254;-48
2022/12/30 07:02:55;;;;;;;1.70;1.58;;;21.90;67.60;;;;;;5049799;28;20212;-45
2022/12/30 07:05:22;;;;;;;3.33;3.08;;;21.80;67.50;;;;;;5041288;28;20204;-42
2022/12/30 07:07:49;;;;;;;2.95;2.70;;;21.80;67.30;;;;;;5049588;28;20203;-41
2022/12/30 07:10:15;;;;;;;53.03;51.20;;;21.80;67.30;;;;;;5048242;28;20273;-41
2022/12/30 07:12:42;;;;;;;1.55;1.45;;;21.80;67.40;;;;;;5046445;28;20660;-42
2022/12/30 07:15:10;;;;;;;2.33;2.05;;;21.80;67.40;;;;;;5043153;28;20254;-41
2022/12/30 07:17:38;;;;;;;2.85;2.55;;;21.80;67.30;;;;;;5049491;28;20740;-41
2022/12/30 07:20:06;;;;;;;2.47;1.67;;;21.80;67.30;;;;;;5049384;28;20215;-41
2022/12/30 07:22:32;;;;;;;1.70;1.30;;;21.80;67.30;;;;;;5049762;28;20217;-42
2022/12/30 07:24:59;;;;;;;2.30;2.13;;;21.80;67.40;;;;;;5039813;28;20200;-42
2022/12/30 07:27:26;;;;;;;2.97;2.75;;;21.80;67.30;;;;;;5043555;28;20253;-45
2022/12/30 07:29:53;;;;;;;2.30;2.10;;;21.80;67.30;;;;;;5043568;28;20644;-42
2022/12/30 07:32:19;;;;;;;2.03;1.75;;;21.80;67.30;;;;;;5039327;28;20257;-41
2022/12/30 07:34:47;;;;;;;2.65;2.45;;;21.80;67.30;;;;;;5046522;28;20200;-43
2022/12/30 07:37:14;;;;;;;1.70;1.58;;;21.70;67.30;;;;;;5048963;28;20197;-45
2022/12/30 07:39:40;;;;;;;2.15;1.10;;;21.70;67.50;;;;;;5042150;28;20193;-42
2022/12/30 07:42:07;;;;;;;1.92;1.73;;;21.70;67.60;;;;;;5048878;28;20672;-43
2022/12/30 07:44:37;;;;;;;2.58;2.00;;;21.60;67.70;;;;;;5046882;28;20195;-44
2022/12/30 07:47:04;;;;;;;1.73;1.27;;;21.60;67.80;;;;;;5036107;28;20295;-43
2022/12/30 07:49:30;;;;;;;2.05;1.70;;;21.50;67.90;;;;;;5048198;28;20205;-42
2022/12/30 07:51:58;;;;;;;1.88;1.77;;;21.50;68.10;;;;;;5044346;28;20201;-42
2022/12/30 07:54:25;;;;;;;1.55;1.45;;;21.40;68.00;;;;;;5043085;28;20200;-42
2022/12/30 07:56:52;;;;;;;2.50;2.00;;;21.40;68.20;;;;;;5039885;28;20255;-43
2022/12/30 07:59:18;;;;;;;2.78;2.58;;;21.30;68.20;;;;;;5039744;28;20208;-44
2022/12/30 08:01:45;;;;;;;2.50;2.30;;;21.30;68.40;;;;;;5039211;28;20198;-44
2022/12/30 08:04:12;;;;;;;2.10;1.90;;;21.20;69.20;;;;;;5039968;28;20265;-42
2022/12/30 08:06:38;;;;;;;3.08;2.88;;;21.20;68.60;;;;;;5040447;28;20478;-41
2022/12/30 08:09:06;;;;;;;2.83;2.63;;;21.20;68.70;;;;;;5040065;28;20246;-42
2022/12/30 08:11:33;;;;;;;2.47;2.15;;;21.10;68.70;;;;;;5038720;28;20699;-42
2022/12/30 08:14:00;;;;;;;1.98;1.70;;;21.20;68.70;;;;;;5037142;28;20209;-42
2022/12/30 08:16:27;;;;;;;2.55;2.35;;;21.20;68.40;;;;;;5035680;28;20908;-44
2022/12/30 08:18:54;;;;;;;1.75;1.60;;;21.40;68.10;;;;;;5041807;28;20197;-41
2022/12/30 08:21:21;;;;;;;1.95;1.50;;;21.50;67.90;;;;;;5048208;28;20203;-42
2022/12/30 08:23:48;;;;;;;1.63;1.52;;;21.60;67.70;;;;;;5042849;28;20594;-42
2022/12/30 08:26:18;;;;;;;2.50;2.05;;;21.60;67.50;;;;;;5048384;28;20196;-42
2022/12/30 08:28:45;;;;;;;2.75;2.55;;;21.70;67.50;;;;;;5044997;28;20192;-45
2022/12/30 08:31:15;;;;;;;2.10;1.90;;;21.70;67.40;;;;;;5041834;28;20279;-41
2022/12/30 08:33:42;;;;;;;1.60;1.50;;;21.70;67.30;;;;;;5049653;28;20245;-42
2022/12/30 08:36:11;;;;;;;1.33;1.20;;;21.80;67.30;;;;;;5049112;28;20191;-43
2022/12/30 08:38:40;;;;;;;1.55;1.33;;;21.80;67.20;;;;;;5046398;28;20551;-42
2022/12/30 08:41:09;;;;;;;1.52;1.27;;;21.80;67.30;;;;;;5051658;28;20195;-42
2022/12/30 08:43:37;;;;;;;1.80;1.42;;;21.80;67.30;;;;;;5048886;28;20220;-42
2022/12/30 08:46:04;;;;;;;2.25;1.75;;;21.80;67.20;;;;;;5041416;28;20207;-42
2022/12/30 08:48:31;;;;;;;2.17;2.00;;;21.80;67.20;;;;;;5050237;28;20194;-44
2022/12/30 08:51:00;;;;;;;2.15;1.95;;;21.80;67.30;;;;;;5045740;28;20647;-42
2022/12/30 08:53:27;;;;;;;2.35;2.15;;;21.80;67.30;;;;;;5044812;28;20227;-47
2022/12/30 08:56:02;;;;;;;1.65;1.55;;;21.80;67.20;;;;;;5034983;28;20197;-42
2022/12/30 08:58:29;;;;;;;1.58;1.35;;;21.80;67.20;;;;;;5046139;28;20567;-42
2022/12/30 09:00:57;;;;;;;2.75;2.55;;;21.80;67.20;;;;;;5049653;28;20261;-45
2022/12/30 09:03:24;;;;;;;70.40;67.47;;;21.80;67.20;;;;;;5038742;28;20699;-43
2022/12/30 09:05:52;;;;;;;2.70;2.50;;;21.80;67.20;;;;;;5037823;28;20195;-42
2022/12/30 09:08:20;;;;;;;2.70;2.50;;;21.80;67.20;;;;;;5042730;28;20567;-41
2022/12/30 09:10:57;;;;;;;1.88;1.58;;;21.90;67.30;;;;;;5040794;28;20544;-42
2022/12/30 09:13:24;;;;;;;2.17;1.97;;;21.80;67.20;;;;;;5037152;28;20220;-44
2022/12/30 09:15:51;;;;;;;1.90;1.50;;;21.80;67.30;;;;;;5039256;28;20464;-41
2022/12/30 09:18:19;;;;;;;2.47;2.28;;;21.80;67.20;;;;;;5042992;28;20211;-42
2022/12/30 09:20:47;;;;;;;2.58;2.38;;;21.80;67.20;;;;;;5036980;28;20274;-42
2022/12/30 09:23:13;;;;;;;2.85;2.65;;;21.80;67.20;;;;;;5038397;28;20215;-41
2022/12/30 09:25:40;;;;;;;1.95;1.60;;;21.90;67.30;;;;;;5039116;28;20231;-43
2022/12/30 09:28:07;;;;;;;2.22;2.03;;;21.90;67.30;;;;;;5038735;28;20192;-42
2022/12/30 09:30:34;;;;;;;2.38;2.20;;;21.80;67.30;;;;;;5039931;28;20203;-47
2022/12/30 09:33:00;;;;;;;2.35;2.13;;;21.90;67.40;;;;;;5045542;28;20220;-42
2022/12/30 09:35:28;;;;;;;2.20;1.67;;;21.80;67.30;;;;;;5048387;28;20612;-42
2022/12/30 09:37:55;;;;;;;2.60;2.40;;;21.90;67.30;;;;;;5049667;28;20561;-47
2022/12/30 09:40:31;;;;;;;1.50;1.40;;;21.80;67.10;;;;;;5052634;28;20474;-46
2022/12/30 09:43:17;;;;;;;2.47;2.28;;;21.90;67.20;;;;;;5034484;28;20517;-45
2022/12/30 09:45:55;;;;;;;2.10;1.92;;;21.90;67.30;;;;;;5049407;28;20201;-40
2022/12/30 09:48:27;;;;;;;9.55;1.77;;;22.00;67.40;;;;;;5046770;28;20207;-41
2022/12/30 09:51:01;;;;;;;1.88;1.15;;;22.00;67.40;;;;;;5045004;28;20681;-38
2022/12/30 09:53:37;;;;;;;2.63;2.37;;;22.00;67.60;;;;;;5048011;28;20203;-43
2022/12/30 09:56:11;;;;;;;2.30;2.10;;;22.00;67.90;;;;;;5046858;28;20468;-41
2022/12/30 09:58:38;;;;;;;1.77;1.67;;;22.00;68.00;;;;;;5048930;28;20191;-40
2022/12/30 10:01:16;;;;;;;2.72;1.30;;;22.00;67.90;;;;;;5050853;28;20193;-41
2022/12/30 10:03:43;;;;;;;1.97;1.40;;;22.00;68.00;;;;;;5050014;28;20753;-41
2022/12/30 10:06:22;;;;;;;2.10;1.97;;;22.00;67.90;;;;;;5051681;28;20487;-41
2022/12/30 10:09:20;;;;;;;2.40;2.20;;;22.00;67.90;;;;;;5043246;28;20472;-41
2022/12/30 10:11:58;;;;;;;2.10;1.90;;;22.00;67.90;;;;;;5047074;28;20664;-46
2022/12/30 10:14:34;;;;;;;2.10;1.80;;;22.00;67.90;;;;;;5042447;28;20663;-45
2022/12/30 10:17:09;;;;;;;1.27;1.10;;;22.10;68.10;;;;;;5053053;28;20461;-41
2022/12/30 10:19:45;;;;;;;3.40;1.60;;;22.00;68.00;;;;;;5052530;28;20610;-43
2022/12/30 10:22:20;;;;;;;3.50;2.70;;;22.00;68.00;;;;;;5049210;28;20192;-46
2022/12/30 10:24:58;;;;;;;3.13;2.83;;;22.00;68.00;;;;;;5043159;28;20226;-45
2022/12/30 10:27:35;;;;;;;2.30;1.90;;;22.10;68.10;;;;;;5051725;28;20200;-40
2022/12/30 10:30:01;;;;;;;1.90;1.60;;;22.00;68.00;;;;;;5045123;28;20193;-41
2022/12/30 10:32:32;;;;;;;3.22;1.58;;;22.00;68.00;;;;;;5047252;28;20304;-42
2022/12/30 10:35:11;;;;;;;24.83;23.40;;;22.00;68.00;;;;;;5049879;28;20223;-41
2022/12/30 10:37:40;;;;;;;10.77;10.02;;;22.00;67.90;;;;;;5049988;28;20231;-41
2022/12/30 10:40:10;;;;;;;2.72;1.92;;;21.90;67.50;;;;;;5046243;28;20193;-41
2022/12/30 10:42:54;;;;;;;2.00;1.80;;;21.90;67.70;;;;;;5045348;28;20259;-41
2022/12/30 10:45:33;;;;;;;1.67;1.40;;;21.80;67.60;;;;;;5040996;28;20298;-41
2022/12/30 10:48:23;;;;;;;1.98;1.83;;;21.90;67.80;;;;;;5042826;28;20201;-41
2022/12/30 10:50:50;;;;;;;1.70;1.45;;;21.90;68.10;;;;;;5050936;28;20679;-41
2022/12/30 10:53:21;;;;;;;2.60;1.58;;;21.90;68.80;;;;;;5047887;28;20189;-45
2022/12/30 10:55:49;;;;;;;2.22;1.30;;;21.90;68.30;;;;;;5051729;28;20197;-42
2022/12/30 10:58:26;;;;;;;2.20;1.80;;;21.90;68.20;;;;;;5049461;28;20258;-42
2022/12/30 11:00:53;;;;;;;1.20;1.10;;;21.90;68.40;;;;;;5040395;28;20208;-43
2022/12/30 11:03:37;;;;;;;2.25;2.00;;;22.00;68.70;;;;;;5039863;28;20661;-48
2022/12/30 11:06:20;;;;;;;3.53;1.55;;;22.00;68.70;;;;;;5046756;28;20196;-47
2022/12/30 11:08:48;;;;;;;2.85;2.65;;;22.00;69.00;;;;;;5044372;28;20231;-47
2022/12/30 11:11:16;;;;;;;2.38;2.17;;;22.00;69.00;;;;;;5051949;28;20212;-52
2022/12/30 11:16:40;;;;;;;2.00;1.80;;;22.10;69.10;;;;;;5037812;28;22486;-50
2022/12/30 11:19:21;;;;;;;2.85;1.70;;;22.10;69.10;;;;;;5044543;28;20283;-52
2022/12/30 11:21:47;;;;;;;1.83;1.60;;;22.20;69.00;;;;;;5045459;28;20281;-47
2022/12/30 11:24:17;;;;;;;2.50;1.58;;;22.30;68.70;;;;;;5045254;28;20524;-48
2022/12/30 11:26:48;;;;;;;1.92;1.73;;;22.30;68.70;;;;;;5048627;28;20550;-49
2022/12/30 11:29:18;;;;;;;1.73;1.63;;;22.30;68.60;;;;;;5049023;28;20192;-49
2022/12/30 11:31:47;;;;;;;2.15;2.03;;;22.40;68.70;;;;;;5042144;28;20196;-48
2022/12/30 11:34:18;;;;;;;5.35;1.60;;;22.30;67.10;;;;;;5039224;28;20234;-52
2022/12/30 11:36:45;;;;;;;2.90;2.70;;;22.20;66.50;;;;;;5044766;28;20203;-48
2022/12/30 11:39:27;;;;;;;2.30;1.30;;;22.20;67.30;;;;;;5040409;28;21009;-51
2022/12/30 11:41:56;;;;;;;3.88;1.75;;;22.30;67.40;;;;;;5041238;28;20504;-49
2022/12/30 11:44:24;;;;;;;1.90;1.60;;;22.40;67.50;;;;;;5049997;28;20255;-47
2022/12/30 11:46:53;;;;;;;3.33;1.60;;;22.40;67.50;;;;;;5051446;28;20514;-53
2022/12/30 11:49:28;;;;;;;1.70;1.30;;;22.40;67.50;;;;;;5049961;28;20281;-51
2022/12/30 11:51:57;;;;;;;2.03;1.83;;;22.40;67.60;;;;;;5050414;28;20250;-46
2022/12/30 11:54:26;;;;;;;1.40;1.10;;;22.50;67.60;;;;;;5046168;28;20552;-47
2022/12/30 11:56:56;;;;;;;2.10;1.20;;;22.40;67.60;;;;;;5043797;28;20451;-48
2022/12/30 11:59:26;;;;;;;1.83;1.73;;;22.50;67.70;;;;;;5047523;28;20451;-55
2022/12/30 12:01:57;;;;;;;2.30;1.67;;;22.40;67.60;;;;;;5042577;28;20875;-52
2022/12/30 12:04:34;;;;;;;1.80;1.55;;;22.40;67.60;;;;;;5046070;28;20475;-50
2022/12/30 12:07:01;;;;;;;2.40;1.80;;;22.50;67.60;;;;;;5040909;28;20250;-53
2022/12/30 12:09:33;;;;;;;2.20;1.52;;;22.50;67.60;;;;;;5045410;28;20490;-51
2022/12/30 12:12:08;;;;;;;3.45;3.15;;;22.50;67.60;;;;;;5043798;28;20601;-54
2022/12/30 12:14:45;;;;;;;2.22;1.58;;;22.50;67.60;;;;;;5047985;28;20603;-51
2022/12/30 12:17:25;;;;;;;1.98;1.38;;;22.50;67.70;;;;;;5048731;28;20208;-49
2022/12/30 12:19:58;;;;;;;1.60;1.30;;;22.50;67.70;;;;;;5048822;28;20219;-48
2022/12/30 12:22:30;;;;;;;2.47;1.95;;;22.60;67.70;;;;;;5046057;28;20201;-52
2022/12/30 12:25:01;;;;;;;1.33;1.20;;;22.60;67.70;;;;;;5045439;28;20690;-47
2022/12/30 12:27:29;;;;;;;1.70;1.35;;;22.60;67.70;;;;;;5050672;28;20690;-45
2022/12/30 12:29:57;;;;;;;2.00;1.55;;;22.60;67.80;;;;;;5046680;28;20250;-47
2022/12/30 12:32:42;;;;;;;3.67;1.60;;;22.50;67.80;;;;;;5041645;28;20197;-47
2022/12/30 12:35:22;;;;;;;1.98;1.77;;;22.50;67.90;;;;;;5048685;28;20212;-48
2022/12/30 12:37:58;;;;;;;3.00;2.80;;;22.50;67.80;;;;;;5044853;28;20196;-46
2022/12/30 12:40:45;;;;;;;2.23;1.97;;;22.30;66.30;;;;;;5047485;28;20188;-48
2022/12/30 12:43:18;;;;;;;1.80;1.47;;;22.30;67.50;;;;;;5042964;28;20461;-48
2022/12/30 12:46:00;;;;;;;1.90;1.73;;;22.50;67.70;;;;;;5049694;28;20482;-50
2022/12/30 12:48:50;;;;;;;1.60;1.10;;;22.60;67.40;;;;;;5041374;28;20250;-49
2022/12/30 12:51:32;;;;;;;2.85;1.52;;;22.70;67.30;;;;;;5045631;28;20188;-50
2022/12/30 12:54:27;;;;;;;6.13;1.40;;;22.70;67.20;;;;;;5046052;28;20250;-46
2022/12/30 12:57:02;;;;;;;1.80;1.70;;;22.80;67.20;;;;;;5047368;28;20458;-47
2022/12/30 12:59:54;;;;;;;2.25;2.05;;;22.80;67.10;;;;;;5044463;28;20466;-50
2022/12/30 13:02:58;;;;;;;2.50;2.22;;;22.90;67.10;;;;;;5042681;28;20193;-51
2022/12/30 13:05:32;;;;;;;5.10;2.65;;;22.90;66.90;;;;;;5047317;28;20216;-49
2022/12/30 13:11:17;;;;;;;2.50;2.30;;;22.90;66.80;;;;;;5040120;28;20295;-49
2022/12/30 13:13:51;;;;;;;2.22;2.05;;;22.80;67.10;;;;;;5047090;28;20188;-46
2022/12/30 13:16:21;;;;;;;1.90;1.80;;;22.80;67.30;;;;;;5041459;28;20253;-46
2022/12/30 13:18:52;;;;;;;1.63;1.52;;;22.70;66.00;;;;;;5047030;28;20208;-46
2022/12/30 13:21:23;;;;;;;8.85;8.23;;;22.60;65.70;;;;;;5064439;28;21248;-46
2022/12/30 13:23:53;;;;;;;1.30;1.00;;;22.50;66.00;;;;;;5063693;28;20248;-49
2022/12/30 13:26:23;;;;;;;2.10;1.25;;;22.50;66.90;;;;;;5066248;28;20286;-47
2022/12/30 13:28:53;;;;;;;2.60;1.75;;;22.60;66.80;;;;;;5071023;28;20221;-51
2022/12/30 13:31:31;;;;;;;1.75;1.50;;;22.60;66.70;;;;;;5061956;28;20674;-48
2022/12/30 13:34:10;;;;;;;3.95;1.85;;;22.70;66.80;;;;;;5065734;28;20646;-46
2022/12/30 13:36:41;;;;;;;2.90;1.95;;;22.70;66.80;;;;;;5065882;28;20540;-49
2022/12/30 13:39:23;;;;;;;3.78;1.35;;;22.70;66.80;;;;;;5057694;28;20746;-50
2022/12/30 13:42:05;;;;;;;1.52;1.40;;;22.80;67.00;;;;;;5064432;28;20191;-46
2022/12/30 13:44:35;;;;;;;1.85;1.30;;;22.80;67.10;;;;;;5065133;28;20215;-53
2022/12/30 13:47:06;;;;;;;1.50;1.30;;;22.80;67.00;;;;;;5062923;28;20192;-50
2022/12/30 13:49:35;;;;;;;1.90;1.70;;;22.80;67.00;;;;;;5067377;28;20200;-53
2022/12/30 13:52:05;;;;;;;2.65;2.45;;;22.80;67.10;;;;;;5066209;28;20706;-45
2022/12/30 13:54:33;;;;;;;2.92;1.50;;;22.80;67.10;;;;;;5063880;28;20199;-46
2022/12/30 13:57:03;;;;;;;3.17;1.27;;;22.80;67.20;;;;;;5068421;28;20207;-49
2022/12/30 13:59:32;;;;;;;1.45;1.10;;;22.80;67.20;;;;;;5069501;28;20191;-52
2022/12/30 14:02:37;;;;;;;2.92;2.67;;;22.80;67.30;;;;;;5066324;28;20838;-47